Time,TemperatureF,DewpointF,PressureIn,WindDirection,WindDirectionDegrees,WindSpeedMPH,WindSpeedGustMPH,Humidity,HourlyPrecipIn,Conditions,Clouds,dailyrainin,SoftwareType,DateUTC
2013-02-03 00:05:00,22.4,20.4,30.06,SSW,194,0.0,0.0,92,0.00,,,0.00,Wunderground v.1.15,2013-02-03 05:05:00,
2013-02-03 00:20:00,22.4,20.7,30.06,SSW,194,0.0,0.0,93,0.00,,,0.00,Wunderground v.1.15,2013-02-03 05:20:00,
2013-02-03 00:34:00,22.4,20.4,30.05,SSW,194,0.0,0.0,92,0.00,,,0.00,Wunderground v.1.15,2013-02-03 05:34:00,
2013-02-03 00:39:00,22.4,20.4,30.05,SSW,194,0.0,0.0,92,0.00,,,0.00,Wunderground v.1.15,2013-02-03 05:39:00,
2013-02-03 00:49:00,22.4,20.4,30.05,SSW,194,0.0,0.0,92,0.00,,,0.00,Wunderground v.1.15,2013-02-03 05:49:00,
2013-02-03 01:05:00,22.2,20.2,30.04,SSW,194,0.0,0.0,92,0.00,,,0.00,Wunderground v.1.15,2013-02-03 06:05:00,
2013-02-03 01:19:00,22.4,20.7,30.04,SSW,194,0.0,0.0,93,0.00,,,0.00,Wunderground v.1.15,2013-02-03 06:19:00,
2013-02-03 01:34:00,21.8,19.8,30.03,SSW,194,0.0,0.0,92,0.00,,,0.00,Wunderground v.1.15,2013-02-03 06:34:00,
2013-02-03 01:46:00,21.5,19.5,30.03,SSW,194,0.0,0.0,92,0.00,,,0.00,Wunderground v.1.15,2013-02-03 06:46:00,
2013-02-03 01:54:00,21.4,19.4,30.03,SSW,194,0.0,0.0,92,0.00,,,0.00,Wunderground v.1.15,2013-02-03 06:54:00,
2013-02-03 02:00:00,21.3,19.3,30.03,SSW,194,0.0,0.0,92,0.00,,,0.00,Wunderground v.1.15,2013-02-03 07:00:00,
2013-02-03 02:09:00,21.3,19.6,30.03,SSW,194,0.0,0.0,93,0.00,,,0.00,Wunderground v.1.15,2013-02-03 07:09:00,
2013-02-03 02:15:00,21.5,19.8,30.02,SSW,194,0.0,0.0,93,0.00,,,0.00,Wunderground v.1.15,2013-02-03 07:15:00,
2013-02-03 02:24:00,21.4,19.7,30.02,SSW,194,0.0,0.0,93,0.00,,,0.00,Wunderground v.1.15,2013-02-03 07:24:00,
2013-02-03 02:30:00,21.2,19.2,30.02,SSW,194,0.0,0.0,92,0.00,,,0.00,Wunderground v.1.15,2013-02-03 07:30:00,
2013-02-03 02:39:00,20.9,18.9,30.02,SSW,194,0.0,0.0,92,0.00,,,0.00,Wunderground v.1.15,2013-02-03 07:39:00,
2013-02-03 02:45:00,20.7,18.7,30.02,SSW,194,0.0,0.0,92,0.00,,,0.00,Wunderground v.1.15,2013-02-03 07:45:00,
2013-02-03 02:54:00,20.3,18.3,30.01,SSW,194,0.0,0.0,92,0.00,,,0.00,Wunderground v.1.15,2013-02-03 07:54:00,
2013-02-03 03:00:00,20.2,18.2,30.00,SSW,194,0.0,0.0,92,0.00,,,0.00,Wunderground v.1.15,2013-02-03 08:00:00,
2013-02-03 03:09:00,20.2,18.2,30.00,SSW,194,0.0,0.0,92,0.00,,,0.00,Wunderground v.1.15,2013-02-03 08:09:00,
2013-02-03 03:15:00,20.0,18.1,30.00,SSW,194,0.0,0.0,92,0.00,,,0.00,Wunderground v.1.15,2013-02-03 08:15:00,
2013-02-03 03:24:00,20.1,18.4,29.99,SSW,194,0.0,0.0,93,0.00,,,0.00,Wunderground v.1.15,2013-02-03 08:24:00,
2013-02-03 03:30:00,19.8,17.9,29.99,SSW,194,0.0,0.0,92,0.00,,,0.00,Wunderground v.1.15,2013-02-03 08:30:00,
2013-02-03 03:39:00,19.4,17.5,29.99,SSW,194,0.0,0.0,92,0.00,,,0.00,Wunderground v.1.15,2013-02-03 08:39:00,
2013-02-03 03:45:00,19.0,16.8,29.99,SSW,194,0.0,0.0,91,0.00,,,0.00,Wunderground v.1.15,2013-02-03 08:45:00,
2013-02-03 03:54:00,18.0,15.8,29.98,SSW,194,0.0,0.0,91,0.00,,,0.00,Wunderground v.1.15,2013-02-03 08:54:00,
2013-02-03 04:00:00,17.8,15.6,29.98,SSW,194,0.0,0.0,91,0.00,,,0.00,Wunderground v.1.15,2013-02-03 09:00:00,
2013-02-03 04:09:00,17.4,15.2,29.98,SSW,194,0.0,0.0,91,0.00,,,0.00,Wunderground v.1.15,2013-02-03 09:09:00,
2013-02-03 04:19:00,17.0,14.8,29.97,SSW,194,0.0,0.0,91,0.00,,,0.00,Wunderground v.1.15,2013-02-03 09:19:00,
2013-02-03 04:30:00,16.7,14.8,29.97,SSW,194,0.0,0.0,92,0.00,,,0.00,Wunderground v.1.15,2013-02-03 09:30:00,
2013-02-03 04:39:00,16.4,14.5,29.97,SSW,194,0.0,0.0,92,0.00,,,0.00,Wunderground v.1.15,2013-02-03 09:39:00,
2013-02-03 04:45:00,16.4,14.5,29.97,SSW,194,0.0,0.0,92,0.00,,,0.00,Wunderground v.1.15,2013-02-03 09:45:00,
2013-02-03 04:54:00,16.0,14.1,29.97,SSW,194,0.0,0.0,92,0.00,,,0.00,Wunderground v.1.15,2013-02-03 09:54:00,
2013-02-03 05:00:00,15.9,14.0,29.97,SSW,194,0.0,0.0,92,0.00,,,0.00,Wunderground v.1.15,2013-02-03 10:00:00,
2013-02-03 05:09:00,15.6,13.7,29.97,SSW,194,0.0,0.0,92,0.00,,,0.00,Wunderground v.1.15,2013-02-03 10:09:00,
2013-02-03 05:15:00,15.6,13.7,29.97,SSW,194,0.0,0.0,92,0.00,,,0.00,Wunderground v.1.15,2013-02-03 10:15:00,
2013-02-03 05:24:00,15.7,13.8,29.97,SSW,194,0.0,0.0,92,0.00,,,0.00,Wunderground v.1.15,2013-02-03 10:24:00,
2013-02-03 05:30:00,15.7,13.8,29.97,SSW,194,0.0,0.0,92,0.00,,,0.00,Wunderground v.1.15,2013-02-03 10:30:00,
2013-02-03 05:39:00,15.9,14.2,29.97,SSW,194,0.0,0.0,93,0.00,,,0.00,Wunderground v.1.15,2013-02-03 10:39:00,
2013-02-03 05:45:00,16.1,14.4,29.97,SSW,194,0.0,0.0,93,0.00,,,0.00,Wunderground v.1.15,2013-02-03 10:45:00,
2013-02-03 05:54:00,16.4,14.7,29.97,SSW,194,0.0,0.0,93,0.00,,,0.00,Wunderground v.1.15,2013-02-03 10:54:00,
2013-02-03 06:01:00,16.5,14.8,29.96,SSW,194,0.0,0.0,93,0.00,,,0.00,Wunderground v.1.15,2013-02-03 11:01:00,
2013-02-03 06:10:00,17.1,15.7,29.96,SSW,194,0.0,0.0,94,0.00,,,0.00,Wunderground v.1.15,2013-02-03 11:10:00,
2013-02-03 06:15:00,17.3,15.9,29.96,SSW,194,0.0,0.0,94,0.00,,,0.00,Wunderground v.1.15,2013-02-03 11:15:00,
2013-02-03 06:25:00,17.3,15.6,29.97,SSW,194,0.0,0.0,93,0.00,,,0.00,Wunderground v.1.15,2013-02-03 11:25:00,
2013-02-03 06:30:00,17.2,15.3,29.97,SSW,194,0.0,0.0,92,0.00,,,0.00,Wunderground v.1.15,2013-02-03 11:30:00,
2013-02-03 06:40:00,16.8,14.9,29.97,SSW,194,0.0,0.0,92,0.00,,,0.00,Wunderground v.1.15,2013-02-03 11:40:00,
2013-02-03 06:45:00,16.6,14.7,29.97,SSW,194,0.0,0.0,92,0.00,,,0.00,Wunderground v.1.15,2013-02-03 11:45:00,
2013-02-03 06:55:00,16.4,14.5,29.97,SSW,194,0.0,0.0,92,0.00,,,0.00,Wunderground v.1.15,2013-02-03 11:55:00,
2013-02-03 07:05:00,15.9,13.7,29.97,SSW,194,0.0,0.0,91,0.00,,,0.00,Wunderground v.1.15,2013-02-03 12:05:00,
2013-02-03 07:16:00,15.5,13.3,29.98,SSW,194,0.0,0.0,91,0.00,,,0.00,Wunderground v.1.15,2013-02-03 12:16:00,
2013-02-03 07:25:00,15.6,13.7,29.98,SSW,194,0.0,0.0,92,0.00,,,0.00,Wunderground v.1.15,2013-02-03 12:25:00,
2013-02-03 07:31:00,15.9,14.2,29.98,SSW,194,0.0,0.0,93,0.00,,,0.00,Wunderground v.1.15,2013-02-03 12:31:00,
2013-02-03 07:40:00,15.5,13.3,29.98,SSW,194,0.0,0.0,91,0.00,,,0.00,Wunderground v.1.15,2013-02-03 12:40:00,
2013-02-03 07:45:00,15.2,13.0,29.98,SSW,194,0.0,0.0,91,0.00,,,0.00,Wunderground v.1.15,2013-02-03 12:45:00,
2013-02-03 07:55:00,14.7,12.6,29.98,SSW,194,0.0,0.0,91,0.00,,,0.00,Wunderground v.1.15,2013-02-03 12:55:00,
2013-02-03 08:00:00,14.6,12.5,29.98,SSW,194,0.0,0.0,91,0.00,,,0.00,Wunderground v.1.15,2013-02-03 13:00:00,
2013-02-03 08:10:00,14.8,12.9,29.99,SSW,194,0.0,0.0,92,0.00,,,0.00,Wunderground v.1.15,2013-02-03 13:10:00,
2013-02-03 08:15:00,15.2,13.5,29.99,SSW,194,0.0,0.0,93,0.00,,,0.00,Wunderground v.1.15,2013-02-03 13:15:00,
2013-02-03 08:25:00,16.1,14.4,29.99,SSW,194,0.0,0.0,93,0.00,,,0.00,Wunderground v.1.15,2013-02-03 13:25:00,
2013-02-03 08:30:00,16.6,15.2,29.99,SSW,194,0.0,0.0,94,0.00,,,0.00,Wunderground v.1.15,2013-02-03 13:30:00,
2013-02-03 08:40:00,17.5,16.1,29.99,SSW,194,0.0,0.0,94,0.00,,,0.00,Wunderground v.1.15,2013-02-03 13:40:00,
2013-02-03 08:50:00,18.5,17.1,29.99,SSE,162,0.0,0.0,94,0.00,,,0.00,Wunderground v.1.15,2013-02-03 13:50:00,
2013-02-03 09:00:00,19.1,17.4,29.99,SSE,162,0.0,0.0,93,0.00,,,0.00,Wunderground v.1.15,2013-02-03 14:00:00,
2013-02-03 09:10:00,19.8,18.1,29.99,SSE,162,0.0,0.0,93,0.00,,,0.00,Wunderground v.1.15,2013-02-03 14:10:00,
2013-02-03 09:15:00,20.0,18.1,29.99,SE,145,0.0,0.0,92,0.00,,,0.00,Wunderground v.1.15,2013-02-03 14:15:00,
2013-02-03 09:24:00,20.6,18.9,29.98,SE,140,0.0,1.0,93,0.00,,,0.00,Wunderground v.1.15,2013-02-03 14:24:00,
2013-02-03 09:30:00,20.7,18.5,29.98,East,101,1.0,1.0,91,0.00,,,0.00,Wunderground v.1.15,2013-02-03 14:30:00,
2013-02-03 09:39:00,21.1,18.9,29.98,East,101,0.0,0.0,91,0.00,,,0.00,Wunderground v.1.15,2013-02-03 14:39:00,
2013-02-03 09:49:00,21.6,19.1,29.98,East,101,0.0,0.0,90,0.00,,,0.00,Wunderground v.1.15,2013-02-03 14:49:00,
2013-02-03 10:00:00,22.3,20.1,29.97,East,101,0.0,0.0,91,0.00,,,0.00,Wunderground v.1.15,2013-02-03 15:00:00,
2013-02-03 10:09:00,23.0,20.2,29.97,ENE,78,0.0,3.0,89,0.00,,,0.00,Wunderground v.1.15,2013-02-03 15:09:00,
2013-02-03 10:15:00,23.0,20.0,29.96,ENE,77,1.0,3.0,88,0.00,,,0.00,Wunderground v.1.15,2013-02-03 15:15:00,
2013-02-03 10:25:00,23.4,20.4,29.96,ENE,77,0.0,1.0,88,0.00,,,0.00,Wunderground v.1.15,2013-02-03 15:25:00,
2013-02-03 10:34:00,23.8,20.5,29.95,NE,55,1.0,2.0,87,0.00,,,0.00,Wunderground v.1.15,2013-02-03 15:34:00,
2013-02-03 10:45:00,23.5,19.9,29.94,NE,55,1.0,1.0,86,0.00,,,0.00,Wunderground v.1.15,2013-02-03 15:45:00,
2013-02-03 10:54:00,23.6,19.8,29.94,NE,55,1.0,2.0,85,0.00,,,0.00,Wunderground v.1.15,2013-02-03 15:54:00,
2013-02-03 11:00:00,23.7,19.9,29.94,NE,55,1.0,2.0,85,0.00,,,0.00,Wunderground v.1.15,2013-02-03 16:00:00,
2013-02-03 11:05:00,23.8,19.9,29.94,NE,55,0.0,2.0,85,0.00,,,0.00,Wunderground v.1.15,2013-02-03 16:05:00,
2013-02-03 11:19:00,24.6,20.7,29.93,NE,55,0.0,2.0,85,0.00,,,0.00,Wunderground v.1.15,2013-02-03 16:19:00,
2013-02-03 11:24:00,24.7,20.6,29.92,ENE,65,1.0,2.0,84,0.00,,,0.00,Wunderground v.1.15,2013-02-03 16:24:00,
2013-02-03 11:34:00,25.3,20.9,29.92,NE,35,1.0,2.0,83,0.00,,,0.00,Wunderground v.1.15,2013-02-03 16:34:00,
2013-02-03 11:40:00,25.2,20.8,29.92,NE,34,2.0,2.0,83,0.00,,,0.00,Wunderground v.1.15,2013-02-03 16:40:00,
2013-02-03 11:50:00,25.1,20.7,29.91,NE,44,1.0,1.0,83,0.00,,,0.00,Wunderground v.1.15,2013-02-03 16:50:00,
2013-02-03 12:00:00,25.4,21.2,29.90,East,95,0.0,0.0,84,0.00,,,0.00,Wunderground v.1.15,2013-02-03 17:00:00,
2013-02-03 12:09:00,26.1,21.6,29.89,ESE,105,0.0,0.0,83,0.00,,,0.00,Wunderground v.1.15,2013-02-03 17:09:00,
2013-02-03 12:15:00,26.4,21.7,29.89,ESE,105,0.0,0.0,82,0.00,,,0.00,Wunderground v.1.15,2013-02-03 17:15:00,
2013-02-03 12:24:00,26.6,21.6,29.88,NE,53,1.0,2.0,81,0.00,,,0.00,Wunderground v.1.15,2013-02-03 17:24:00,
2013-02-03 12:30:00,26.4,21.1,29.88,NE,36,2.0,2.0,80,0.00,,,0.00,Wunderground v.1.15,2013-02-03 17:30:00,
2013-02-03 12:39:00,26.5,21.7,29.87,NE,47,1.0,1.0,82,0.00,,,0.00,Wunderground v.1.15,2013-02-03 17:39:00,
2013-02-03 12:45:00,26.9,21.6,29.87,SSE,167,1.0,1.0,80,0.00,,,0.00,Wunderground v.1.15,2013-02-03 17:45:00,
2013-02-03 12:54:00,26.9,21.6,29.87,WSW,252,0.0,1.0,80,0.00,,,0.00,Wunderground v.1.15,2013-02-03 17:54:00,
2013-02-03 13:04:00,27.1,21.5,29.86,WSW,252,0.0,0.0,79,0.00,,,0.00,Wunderground v.1.15,2013-02-03 18:04:00,
2013-02-03 13:09:00,27.2,21.8,29.86,WSW,253,0.0,0.0,80,0.00,,,0.00,Wunderground v.1.15,2013-02-03 18:09:00,
2013-02-03 13:19:00,27.2,21.8,29.86,WSW,253,0.0,0.0,80,0.00,,,0.00,Wunderground v.1.15,2013-02-03 18:19:00,
2013-02-03 13:24:00,27.5,22.7,29.85,WSW,253,0.0,0.0,82,0.00,,,0.00,Wunderground v.1.15,2013-02-03 18:24:00,
2013-02-03 13:34:00,27.5,21.2,29.85,WSW,253,0.0,2.0,77,0.00,,,0.00,Wunderground v.1.15,2013-02-03 18:34:00,
2013-02-03 13:39:00,27.3,21.3,29.85,WSW,254,1.0,2.0,78,0.00,,,0.00,Wunderground v.1.15,2013-02-03 18:39:00,
2013-02-03 13:49:00,27.2,21.2,29.85,WSW,253,0.0,0.0,78,0.00,,,0.00,Wunderground v.1.15,2013-02-03 18:49:00,
2013-02-03 13:54:00,27.2,20.9,29.84,WSW,253,0.0,0.0,77,0.00,,,0.00,Wunderground v.1.15,2013-02-03 18:54:00,
2013-02-03 14:04:00,27.6,21.9,29.84,WSW,254,0.0,1.0,79,0.00,,,0.00,Wunderground v.1.15,2013-02-03 19:04:00,
2013-02-03 14:09:00,27.7,21.1,29.84,WSW,254,0.0,1.0,76,0.00,,,0.00,Wunderground v.1.15,2013-02-03 19:09:00,
2013-02-03 14:19:00,27.5,20.9,29.83,WSW,254,1.0,1.0,76,0.00,,,0.00,Wunderground v.1.15,2013-02-03 19:19:00,
2013-02-03 14:30:00,27.6,20.4,29.83,SSE,158,1.0,1.0,74,0.00,,,0.00,Wunderground v.1.15,2013-02-03 19:30:00,
2013-02-03 14:39:00,27.4,19.9,29.83,South,180,2.0,4.0,73,0.00,,,0.00,Wunderground v.1.15,2013-02-03 19:39:00,
2013-02-03 14:45:00,27.3,20.1,29.83,SSW,203,2.0,4.0,74,0.00,,,0.00,Wunderground v.1.15,2013-02-03 19:45:00,
2013-02-03 14:54:00,27.4,20.8,29.83,SSW,193,1.0,2.0,76,0.00,,,0.00,Wunderground v.1.15,2013-02-03 19:54:00,
2013-02-03 15:01:00,27.3,20.1,29.83,South,188,1.0,2.0,74,0.00,,,0.00,Wunderground v.1.15,2013-02-03 20:01:00,
2013-02-03 15:10:00,27.4,20.8,29.82,South,184,1.0,2.0,76,0.00,,,0.00,Wunderground v.1.15,2013-02-03 20:10:00,
2013-02-03 15:15:00,27.4,20.8,29.83,South,178,1.0,2.0,76,0.00,,,0.00,Wunderground v.1.15,2013-02-03 20:15:00,
2013-02-03 15:25:00,27.4,20.8,29.83,South,180,2.0,2.0,76,0.00,,,0.00,Wunderground v.1.15,2013-02-03 20:25:00,
2013-02-03 15:30:00,27.4,20.8,29.83,South,184,1.0,1.0,76,0.00,,,0.00,Wunderground v.1.15,2013-02-03 20:30:00,
2013-02-03 15:40:00,27.5,21.2,29.83,South,188,1.0,1.0,77,0.00,,,0.00,Wunderground v.1.15,2013-02-03 20:40:00,
2013-02-03 15:45:00,27.5,21.2,29.83,SSW,208,1.0,2.0,77,0.00,,,0.00,Wunderground v.1.15,2013-02-03 20:45:00,
2013-02-03 15:55:00,27.6,21.0,29.83,South,188,1.0,1.0,76,0.00,,,0.00,Wunderground v.1.15,2013-02-03 20:55:00,
2013-02-03 16:05:00,27.3,21.0,29.82,SW,225,1.0,1.0,77,0.00,,,0.00,Wunderground v.1.15,2013-02-03 21:05:00,
2013-02-03 16:15:00,27.3,21.3,29.83,WSW,237,1.0,1.0,78,0.00,,,0.00,Wunderground v.1.15,2013-02-03 21:15:00,
2013-02-03 16:25:00,27.1,20.8,29.83,South,188,1.0,2.0,77,0.00,,,0.00,Wunderground v.1.15,2013-02-03 21:25:00,
2013-02-03 16:30:00,27.0,20.7,29.83,South,188,1.0,2.0,77,0.00,,,0.00,Wunderground v.1.15,2013-02-03 21:30:00,
2013-02-03 16:40:00,27.1,21.7,29.83,South,188,0.0,1.0,80,0.00,,,0.00,Wunderground v.1.15,2013-02-03 21:40:00,
2013-02-03 16:50:00,27.0,21.1,29.83,South,188,0.0,0.0,78,0.00,,,0.00,Wunderground v.1.15,2013-02-03 21:50:00,
2013-02-03 17:05:00,26.6,20.7,29.83,South,188,0.0,0.0,78,0.00,,,0.00,Wunderground v.1.15,2013-02-03 22:05:00,
2013-02-03 17:10:00,26.5,20.6,29.83,South,188,0.0,0.0,78,0.00,,,0.00,Wunderground v.1.15,2013-02-03 22:10:00,
2013-02-03 17:20:00,26.4,21.7,29.82,South,188,0.0,0.0,82,0.00,,,0.00,Wunderground v.1.15,2013-02-03 22:20:00,
2013-02-03 17:25:00,26.3,21.0,29.82,South,188,0.0,0.0,80,0.00,,,0.00,Wunderground v.1.15,2013-02-03 22:25:00,
2013-02-03 17:35:00,26.1,21.1,29.82,South,188,0.0,0.0,81,0.00,,,0.00,Wunderground v.1.15,2013-02-03 22:35:00,
2013-02-03 17:40:00,26.0,20.7,29.82,South,188,0.0,0.0,80,0.00,,,0.00,Wunderground v.1.15,2013-02-03 22:40:00,
2013-02-03 17:45:00,25.7,20.4,29.81,South,188,0.0,0.0,80,0.00,,,0.00,Wunderground v.1.15,2013-02-03 22:45:00,
2013-02-03 17:55:00,25.4,20.7,29.82,South,188,0.0,0.0,82,0.00,,,0.00,Wunderground v.1.15,2013-02-03 22:55:00,
2013-02-03 18:00:00,25.2,20.5,29.82,South,188,0.0,0.0,82,0.00,,,0.00,Wunderground v.1.15,2013-02-03 23:00:00,
2013-02-03 18:10:00,24.9,20.2,29.82,South,188,0.0,0.0,82,0.00,,,0.00,Wunderground v.1.15,2013-02-03 23:10:00,
2013-02-03 18:15:00,24.6,19.9,29.82,South,188,0.0,0.0,82,0.00,,,0.00,Wunderground v.1.15,2013-02-03 23:15:00,
2013-02-03 18:25:00,24.0,19.9,29.82,South,188,0.0,0.0,84,0.00,,,0.00,Wunderground v.1.15,2013-02-03 23:25:00,
2013-02-03 18:30:00,23.6,19.2,29.82,South,188,0.0,0.0,83,0.00,,,0.00,Wunderground v.1.15,2013-02-03 23:30:00,
2013-02-03 18:40:00,23.0,18.9,29.83,South,188,0.0,0.0,84,0.00,,,0.00,Wunderground v.1.15,2013-02-03 23:40:00,
2013-02-03 18:50:00,22.3,18.2,29.82,South,188,0.0,0.0,84,0.00,,,0.00,Wunderground v.1.15,2013-02-03 23:50:00,
2013-02-03 19:00:00,21.7,18.2,29.83,South,188,0.0,0.0,86,0.00,,,0.00,Wunderground v.1.15,2013-02-04 00:00:00,
2013-02-03 19:10:00,22.2,20.2,29.83,South,188,0.0,0.0,92,0.00,,,0.00,Wunderground v.1.15,2013-02-04 00:10:00,
2013-02-03 19:15:00,22.2,19.7,29.83,South,188,0.0,0.0,90,0.00,,,0.00,Wunderground v.1.15,2013-02-04 00:15:00,
2013-02-03 19:25:00,21.2,17.7,29.84,South,188,0.0,0.0,86,0.00,,,0.00,Wunderground v.1.15,2013-02-04 00:25:00,
2013-02-03 19:35:00,20.6,17.6,29.84,South,188,0.0,0.0,88,0.00,,,0.00,Wunderground v.1.15,2013-02-04 00:35:00,
2013-02-03 19:50:00,19.9,16.9,29.84,South,188,0.0,0.0,88,0.00,,,0.00,Wunderground v.1.15,2013-02-04 00:50:00,
2013-02-03 20:00:00,19.8,17.1,29.84,South,188,0.0,0.0,89,0.00,,,0.00,Wunderground v.1.15,2013-02-04 01:00:00,
2013-02-03 20:10:00,20.0,17.5,29.84,South,188,0.0,0.0,90,0.00,,,0.00,Wunderground v.1.15,2013-02-04 01:10:00,
2013-02-03 20:15:00,20.2,17.7,29.84,South,188,0.0,0.0,90,0.00,,,0.00,Wunderground v.1.15,2013-02-04 01:15:00,
2013-02-03 20:25:00,20.4,17.9,29.84,South,188,0.0,0.0,90,0.00,,,0.00,Wunderground v.1.15,2013-02-04 01:25:00,
2013-02-03 20:30:00,20.4,17.9,29.84,South,188,0.0,0.0,90,0.00,,,0.00,Wunderground v.1.15,2013-02-04 01:30:00,
2013-02-03 20:39:00,20.4,17.9,29.84,South,188,0.0,0.0,90,0.00,,,0.00,Wunderground v.1.15,2013-02-04 01:39:00,
2013-02-03 20:45:00,20.5,18.0,29.84,South,188,0.0,0.0,90,0.00,,,0.00,Wunderground v.1.15,2013-02-04 01:45:00,
2013-02-03 20:54:00,20.6,18.1,29.85,South,188,0.0,0.0,90,0.00,,,0.00,Wunderground v.1.15,2013-02-04 01:54:00,
2013-02-03 21:00:00,20.6,18.1,29.84,South,188,0.0,0.0,90,0.00,,,0.00,Wunderground v.1.15,2013-02-04 02:00:00,
2013-02-03 21:09:00,20.6,18.1,29.85,South,188,0.0,0.0,90,0.00,,,0.00,Wunderground v.1.15,2013-02-04 02:09:00,
2013-02-03 21:15:00,20.6,18.1,29.84,South,188,0.0,0.0,90,0.00,,,0.00,Wunderground v.1.15,2013-02-04 02:15:00,
2013-02-03 21:24:00,20.7,18.2,29.84,South,188,0.0,0.0,90,0.00,,,0.00,Wunderground v.1.15,2013-02-04 02:24:00,
2013-02-03 21:34:00,21.2,19.5,29.84,South,188,0.0,0.0,93,0.00,,,0.00,Wunderground v.1.15,2013-02-04 02:34:00,
2013-02-03 21:45:00,22.2,20.7,29.84,South,188,0.0,0.0,94,0.00,,,0.00,Wunderground v.1.15,2013-02-04 02:45:00,
2013-02-03 21:54:00,22.2,20.2,29.84,South,188,0.0,0.0,92,0.00,,,0.00,Wunderground v.1.15,2013-02-04 02:54:00,
2013-02-03 22:00:00,22.2,20.2,29.84,South,188,0.0,0.0,92,0.00,,,0.00,Wunderground v.1.15,2013-02-04 03:00:00,
2013-02-03 22:09:00,22.4,20.4,29.84,South,188,0.0,0.0,92,0.00,,,0.00,Wunderground v.1.15,2013-02-04 03:09:00,
2013-02-03 22:15:00,22.3,20.1,29.84,South,188,0.0,0.0,91,0.00,,,0.00,Wunderground v.1.15,2013-02-04 03:15:00,
2013-02-03 22:24:00,22.1,19.9,29.84,South,188,0.0,0.0,91,0.00,,,0.00,Wunderground v.1.15,2013-02-04 03:24:00,
2013-02-03 22:30:00,22.3,20.3,29.84,South,188,0.0,0.0,92,0.00,,,0.00,Wunderground v.1.15,2013-02-04 03:30:00,
2013-02-03 22:39:00,22.4,20.4,29.85,South,188,0.0,1.0,92,0.00,,,0.00,Wunderground v.1.15,2013-02-04 03:39:00,
2013-02-03 22:49:00,23.3,21.6,29.85,SSW,200,0.0,2.0,93,0.00,,,0.00,Wunderground v.1.15,2013-02-04 03:49:00,
2013-02-03 23:00:00,24.2,22.2,29.85,SW,214,1.0,1.0,92,0.00,,,0.00,Wunderground v.1.15,2013-02-04 04:00:00,
2013-02-03 23:09:00,24.5,22.2,29.85,SW,217,1.0,1.0,91,0.00,,,0.00,Wunderground v.1.15,2013-02-04 04:09:00,
2013-02-03 23:15:00,24.7,22.4,29.85,SW,236,1.0,1.0,91,0.00,,,0.00,Wunderground v.1.15,2013-02-04 04:15:00,
2013-02-03 23:24:00,25.0,22.5,29.85,WSW,251,1.0,1.0,90,0.00,,,0.00,Wunderground v.1.15,2013-02-04 04:24:00,
2013-02-03 23:30:00,25.1,22.3,29.86,SW,222,1.0,1.0,89,0.00,,,0.00,Wunderground v.1.15,2013-02-04 04:30:00,
2013-02-03 23:39:00,25.3,22.2,29.86,WSW,250,1.0,1.0,88,0.00,,,0.00,Wunderground v.1.15,2013-02-04 04:39:00,
2013-02-03 23:49:00,25.4,21.2,29.87,WSW,250,1.0,2.0,84,0.00,,,0.00,Wunderground v.1.15,2013-02-04 04:49:00,
2013-02-03 23:56:00,25.6,20.9,29.87,WSW,254,2.0,3.0,82,0.00,,,0.00,Wunderground v.1.15,2013-02-04 04:56:00,